Time;durP1;ratioP1;P1;durP2;ratioP2;P2;SDS_P1;SDS_P2;PMS_P1;PMS_P2;Temp;Humidity;BMP_temperature;BMP_pressure;BME280_temperature;BME280_humidity;BME280_pressure;Samples;Min_cycle;Max_cycle;Signal;HPM_P1;HPM_P2
2023/05/12 00:02:11;;;;;;;4.57;2.30;;;;;;;12.87;65.27;99446.88;6156007;23;20167;-90
2023/05/12 00:04:39;;;;;;;5.60;2.50;;;;;;;12.86;65.58;99444.34;6154782;23;20163;-90
2023/05/12 00:07:05;;;;;;;5.33;2.30;;;;;;;12.73;65.49;99445.97;6155888;23;20145;-90
2023/05/12 00:09:31;;;;;;;4.67;1.80;;;;;;;12.69;65.67;99442.66;6155666;23;20152;-90
2023/05/12 00:11:57;;;;;;;4.00;2.10;;;;;;;12.66;66.07;99441.97;6155670;23;20158;-90
2023/05/12 00:14:22;;;;;;;4.53;2.33;;;;;;;12.73;65.60;99443.34;6154589;23;20598;-90
2023/05/12 00:16:50;;;;;;;3.40;2.00;;;;;;;12.77;65.83;99439.59;6155826;23;20181;-91
2023/05/12 00:19:17;;;;;;;6.63;2.27;;;;;;;12.69;65.86;99441.78;6155899;23;20149;-91
2023/05/12 00:21:43;;;;;;;6.23;2.80;;;;;;;12.75;65.62;99441.47;6155875;23;20159;-91
2023/05/12 00:24:08;;;;;;;5.37;2.30;;;;;;;12.61;65.64;99438.75;6156068;23;20454;-91
2023/05/12 00:26:33;;;;;;;6.87;2.03;;;;;;;12.57;65.95;99445.13;6154794;23;20151;-91
2023/05/12 00:28:59;;;;;;;4.70;2.07;;;;;;;12.66;65.74;99447.22;6154359;23;20197;-92
2023/05/12 00:31:25;;;;;;;3.63;1.73;;;;;;;12.62;65.27;99443.09;6156395;23;20271;-91
2023/05/12 00:33:51;;;;;;;4.37;2.30;;;;;;;12.61;65.71;99450.13;6130112;23;20181;-91
2023/05/12 00:36:16;;;;;;;5.20;2.57;;;;;;;12.63;65.42;99444.78;6155780;23;20159;-89
2023/05/12 00:38:42;;;;;;;6.33;2.40;;;;;;;12.54;65.38;99448.78;6156142;23;20170;-92
2023/05/12 00:41:07;;;;;;;4.27;1.90;;;;;;;12.54;65.88;99445.28;6155715;23;20578;-90
2023/05/12 00:43:33;;;;;;;6.53;2.03;;;;;;;12.54;65.62;99446.16;6156002;23;20152;-90
2023/05/12 00:46:00;;;;;;;4.17;2.37;;;;;;;12.50;65.68;99444.59;6155523;23;20568;-90
2023/05/12 00:48:26;;;;;;;5.00;2.80;;;;;;;12.55;65.79;99444.38;6155836;23;20152;-90
2023/05/12 00:50:52;;;;;;;7.03;2.30;;;;;;;12.43;65.76;99443.25;6129969;23;20262;-90
2023/05/12 00:53:18;;;;;;;7.03;2.57;;;;;;;12.32;66.29;99445.63;6155663;23;20284;-90
2023/05/12 00:55:43;;;;;;;4.47;2.43;;;;;;;12.28;66.19;99444.09;6155478;23;20463;-90
2023/05/12 00:58:09;;;;;;;5.00;2.40;;;;;;;12.28;66.37;99436.22;6155536;23;20171;-90
2023/05/12 01:00:34;;;;;;;5.90;2.43;;;;;;;12.30;65.93;99444.84;6129864;23;20170;-90
2023/05/12 01:03:00;;;;;;;5.57;2.33;;;;;;;12.25;66.27;99436.38;6129804;23;20162;-89
2023/05/12 01:05:33;;;;;;;6.13;2.90;;;;;;;12.28;66.39;99441.47;6155788;23;20245;-90
2023/05/12 01:08:00;;;;;;;5.80;2.00;;;;;;;12.34;65.79;99451.66;6155678;23;20206;-89
2023/05/12 01:10:25;;;;;;;6.37;2.47;;;;;;;12.29;65.98;99443.16;6129752;23;20521;-90
2023/05/12 01:12:50;;;;;;;4.50;2.30;;;;;;;12.23;66.16;99439.09;6155452;23;20151;-90
2023/05/12 01:15:17;;;;;;;7.23;2.93;;;;;;;12.22;66.13;99447.06;6155790;23;20151;-89
2023/05/12 01:17:49;;;;;;;3.30;1.63;;;;;;;12.27;66.39;99440.63;6155512;23;20259;-89
2023/05/12 01:20:17;;;;;;;6.17;2.23;;;;;;;12.23;65.85;99433.00;6155838;23;20223;-90
2023/05/12 01:22:44;;;;;;;4.20;2.17;;;;;;;12.20;66.43;99441.03;6155461;23;20185;-89
2023/05/12 01:25:11;;;;;;;12.80;2.50;;;;;;;12.27;66.05;99443.25;6155794;23;20160;-90
2023/05/12 01:27:39;;;;;;;6.97;2.23;;;;;;;12.22;66.03;99437.41;6155312;23;20147;-89
2023/05/12 01:30:06;;;;;;;3.47;2.13;;;;;;;12.19;66.26;99434.94;6155729;23;20533;-89
2023/05/12 01:32:32;;;;;;;7.80;2.17;;;;;;;12.16;66.38;99436.88;6155950;23;20151;-90
2023/05/12 01:34:58;;;;;;;8.00;2.53;;;;;;;12.18;65.90;99440.28;6129621;23;20187;-90
2023/05/12 01:37:25;;;;;;;5.33;2.67;;;;;;;12.08;66.08;99439.09;6129784;23;20296;-90
2023/05/12 01:39:51;;;;;;;6.50;2.47;;;;;;;12.04;65.97;99437.53;6129698;23;20599;-90
2023/05/12 01:42:17;;;;;;;5.73;2.53;;;;;;;12.03;65.82;99435.84;6155579;23;20155;-91
2023/05/12 01:44:42;;;;;;;5.43;2.60;;;;;;;11.92;66.27;99439.06;6129931;23;20242;-90
2023/05/12 01:47:10;;;;;;;7.00;2.40;;;;;;;11.94;66.26;99438.97;6156675;23;20237;-90
2023/05/12 01:49:37;;;;;;;4.87;2.30;;;;;;;11.86;66.61;99438.53;6157833;23;20201;-91
2023/05/12 01:52:03;;;;;;;4.27;2.20;;;;;;;11.92;66.38;99435.59;6131816;23;20183;-92
2023/05/12 01:54:29;;;;;;;3.90;2.23;;;;;;;11.97;66.09;99449.31;6131548;23;20542;-91
2023/05/12 01:56:55;;;;;;;5.67;3.00;;;;;;;11.96;66.42;99450.22;6157234;23;20171;-90
2023/05/12 01:59:20;;;;;;;4.57;2.40;;;;;;;11.94;66.36;99445.06;6157310;23;20158;-90
2023/05/12 02:01:45;;;;;;;9.03;2.33;;;;;;;11.91;66.70;99453.13;6131296;23;20508;-90
2023/05/12 02:04:11;;;;;;;7.53;2.83;;;;;;;11.93;66.33;99440.75;6131670;23;20493;-90
2023/05/12 02:06:37;;;;;;;8.97;2.73;;;;;;;11.98;66.30;99449.22;6131562;23;20148;-91
2023/05/12 02:09:02;;;;;;;3.80;1.93;;;;;;;12.05;65.83;99444.50;6131472;23;20155;-92
2023/05/12 02:11:28;;;;;;;5.10;2.33;;;;;;;11.97;66.27;99452.81;6131518;23;20152;-90
2023/05/12 02:13:53;;;;;;;5.73;2.60;;;;;;;11.95;66.22;99443.31;6157040;23;20479;-90
2023/05/12 02:16:20;;;;;;;6.00;2.60;;;;;;;11.82;66.70;99444.88;6156943;23;20158;-91
2023/05/12 02:18:45;;;;;;;7.10;2.40;;;;;;;11.91;66.48;99439.13;6157313;23;20152;-90
2023/05/12 02:21:10;;;;;;;5.13;2.63;;;;;;;11.88;66.60;99444.53;6157099;23;20527;-90
2023/05/12 02:23:36;;;;;;;3.80;2.27;;;;;;;11.85;66.65;99442.91;6157013;23;20175;-91
2023/05/12 02:26:01;;;;;;;4.70;2.27;;;;;;;11.85;66.31;99445.53;6131637;23;20491;-90
2023/05/12 02:28:27;;;;;;;4.00;2.30;;;;;;;11.83;66.97;99444.78;6156777;23;20591;-90
2023/05/12 02:30:53;;;;;;;5.97;2.57;;;;;;;11.89;66.48;99451.50;6156672;23;20364;-90
2023/05/12 02:33:20;;;;;;;4.50;2.20;;;;;;;11.98;66.61;99443.97;6157068;23;20574;-91
2023/05/12 02:35:45;;;;;;;5.53;2.57;;;;;;;12.03;65.96;99443.72;6156735;23;20154;-90
2023/05/12 02:38:12;;;;;;;9.10;2.70;;;;;;;11.98;66.21;99445.75;6131526;23;20270;-90
2023/05/12 02:40:38;;;;;;;5.73;2.50;;;;;;;11.96;66.08;99451.09;6156787;23;20147;-90
2023/05/12 02:43:03;;;;;;;6.27;2.63;;;;;;;12.00;66.37;99446.53;6131021;23;20155;-90
2023/05/12 02:45:29;;;;;;;5.67;2.33;;;;;;;12.02;65.91;99449.91;6156701;23;20222;-89
2023/05/12 02:47:54;;;;;;;4.20;2.10;;;;;;;12.04;66.02;99448.06;6156922;23;20218;-91
2023/05/12 02:50:20;;;;;;;4.73;2.50;;;;;;;12.09;65.88;99451.28;6156956;23;20590;-91
2023/05/12 02:52:46;;;;;;;6.50;2.53;;;;;;;12.08;65.86;99450.41;6131261;23;20155;-90
2023/05/12 02:55:12;;;;;;;3.70;2.43;;;;;;;12.16;65.66;99450.84;6157624;23;20156;-89
2023/05/12 02:57:37;;;;;;;5.07;2.70;;;;;;;12.21;65.39;99454.09;6156165;23;20206;-90
2023/05/12 03:00:06;;;;;;;4.57;2.20;;;;;;;12.24;65.72;99460.94;6156431;23;20147;-89
2023/05/12 03:02:33;;;;;;;4.63;2.33;;;;;;;12.28;65.20;99452.84;6156872;23;20191;-90
2023/05/12 03:04:58;;;;;;;6.23;2.33;;;;;;;12.36;65.03;99456.81;6156465;23;20611;-90
2023/05/12 03:07:24;;;;;;;3.43;2.13;;;;;;;12.32;65.05;99464.03;6156534;23;20143;-91
2023/05/12 03:09:49;;;;;;;4.77;2.30;;;;;;;12.32;65.25;99461.38;6130755;23;20155;-90
2023/05/12 03:12:15;;;;;;;5.70;2.23;;;;;;;12.38;65.14;99454.94;6131169;23;20159;-91
2023/05/12 03:14:41;;;;;;;5.43;2.17;;;;;;;12.44;65.10;99459.88;6131149;23;20167;-90
2023/05/12 03:17:06;;;;;;;7.30;2.67;;;;;;;12.39;64.87;99460.16;6130653;23;20654;-90
2023/05/12 03:19:32;;;;;;;3.80;1.97;;;;;;;12.41;64.97;99471.41;6130733;23;20222;-90
2023/05/12 03:21:57;;;;;;;4.93;2.37;;;;;;;12.40;64.95;99472.34;6130715;23;20238;-91
2023/05/12 03:24:23;;;;;;;7.73;2.57;;;;;;;12.36;65.52;99465.56;6130505;23;20467;-89
2023/05/12 03:26:48;;;;;;;5.73;2.43;;;;;;;12.33;65.13;99468.34;6156214;23;20505;-89
2023/05/12 03:29:14;;;;;;;4.80;2.60;;;;;;;12.30;65.31;99463.25;6156006;23;20525;-89
2023/05/12 03:31:40;;;;;;;6.40;3.10;;;;;;;12.28;65.17;99473.88;6156342;23;20140;-91
2023/05/12 03:34:05;;;;;;;4.37;2.50;;;;;;;12.19;65.46;99473.50;6156273;23;20155;-90
2023/05/12 03:36:31;;;;;;;3.17;1.90;;;;;;;12.20;65.39;99475.22;6156850;23;20571;-91
2023/05/12 03:38:56;;;;;;;4.87;2.43;;;;;;;12.19;65.75;99469.09;6156299;23;20228;-89
2023/05/12 03:41:22;;;;;;;9.30;2.60;;;;;;;12.24;65.80;99477.56;6156377;23;20147;-90
2023/05/12 03:43:47;;;;;;;3.60;1.83;;;;;;;12.28;65.79;99478.28;6156108;23;20575;-89
2023/05/12 03:46:13;;;;;;;4.40;2.40;;;;;;;12.20;65.65;99476.06;6156123;23;20148;-89
2023/05/12 03:48:39;;;;;;;5.77;2.03;;;;;;;12.26;66.29;99490.66;6156060;23;20147;-89
2023/05/12 03:51:04;;;;;;;6.00;2.83;;;;;;;12.30;66.00;99487.78;6156131;23;20151;-89
2023/05/12 03:53:31;;;;;;;4.47;2.50;;;;;;;12.32;65.92;99487.69;6155403;23;20590;-90
2023/05/12 03:56:03;;;;;;;5.00;2.80;;;;;;;12.27;66.00;99494.97;6130137;23;20166;-90
2023/05/12 03:58:30;;;;;;;5.07;2.83;;;;;;;12.22;66.40;99494.34;6156284;23;20171;-90
2023/05/12 04:00:58;;;;;;;4.73;2.20;;;;;;;12.29;66.48;99498.34;6156335;23;20151;-91
2023/05/12 04:03:26;;;;;;;3.87;2.23;;;;;;;12.42;66.05;99502.00;6156014;23;20676;-89
2023/05/12 04:06:00;;;;;;;5.20;2.77;;;;;;;12.42;66.30;99502.00;6156106;23;20151;-89
2023/05/12 04:08:28;;;;;;;4.83;2.47;;;;;;;12.46;65.97;99498.31;6156080;23;20142;-89
2023/05/12 04:10:59;;;;;;;5.87;2.57;;;;;;;12.47;66.42;99500.00;6156416;23;20152;-90
2023/05/12 04:13:28;;;;;;;5.30;2.10;;;;;;;12.43;66.07;99503.72;6130665;23;20154;-89
2023/05/12 04:16:01;;;;;;;5.23;2.13;;;;;;;12.50;66.02;99501.63;6156298;23;20575;-90
2023/05/12 04:18:28;;;;;;;4.37;2.23;;;;;;;12.51;66.04;99506.78;6155892;23;20183;-90
2023/05/12 04:20:55;;;;;;;3.90;2.20;;;;;;;12.43;66.29;99503.72;6130446;23;20492;-91
2023/05/12 04:23:22;;;;;;;4.87;2.53;;;;;;;12.45;66.29;99496.59;6129923;23;20154;-91
2023/05/12 04:25:50;;;;;;;6.40;2.83;;;;;;;12.58;66.52;99502.88;6155835;23;20158;-91
2023/05/12 04:28:16;;;;;;;5.43;2.43;;;;;;;12.76;65.84;99507.13;6155887;23;20616;-89
2023/05/12 04:30:43;;;;;;;5.83;2.60;;;;;;;12.66;65.89;99497.19;6147136;23;20199;-89
2023/05/12 04:33:09;;;;;;;4.87;2.27;;;;;;;12.63;65.74;99506.09;6155921;23;20157;-90
2023/05/12 04:35:36;;;;;;;5.53;1.90;;;;;;;12.84;65.22;99510.19;6155410;23;20160;-91
2023/05/12 04:38:03;;;;;;;5.23;2.13;;;;;;;12.88;65.59;99505.59;6153724;23;20196;-89
2023/05/12 04:40:30;;;;;;;5.27;2.23;;;;;;;12.99;65.02;99502.38;6155760;23;20283;-91
2023/05/12 04:42:57;;;;;;;3.77;1.83;;;;;;;13.13;64.84;99511.19;6154889;23;20235;-91
2023/05/12 04:45:23;;;;;;;4.97;1.87;;;;;;;13.18;64.12;99508.31;6154995;23;20596;-91
2023/05/12 04:47:50;;;;;;;3.63;2.17;;;;;;;13.03;63.66;99509.16;6156544;23;20149;-92
2023/05/12 04:50:17;;;;;;;4.23;2.00;;;;;;;13.13;64.21;99510.38;6156641;23;20160;-90
2023/05/12 04:52:44;;;;;;;4.80;2.00;;;;;;;13.27;63.11;99507.78;6154869;23;20161;-91
2023/05/12 04:55:26;;;;;;;4.73;1.73;;;;;;;13.48;63.77;99506.53;5091046;27;20527;-92
2023/05/12 04:57:53;;;;;;;7.67;1.70;;;;;;;13.33;62.79;99516.19;5091075;28;20193;-93
2023/05/12 05:00:19;;;;;;;5.73;2.13;;;;;;;13.53;62.65;99512.38;5089890;28;20212;-91
2023/05/12 05:02:46;;;;;;;4.57;2.00;;;;;;;13.77;62.69;99505.69;5090829;28;20178;-91
2023/05/12 05:05:13;;;;;;;3.77;1.60;;;;;;;13.90;60.79;99509.28;5090884;28;20171;-91
2023/05/12 05:07:39;;;;;;;3.93;2.07;;;;;;;13.99;61.07;99506.06;5089741;28;20264;-91
2023/05/12 05:10:07;;;;;;;4.77;2.10;;;;;;;14.24;60.13;99501.94;5090861;28;20236;-92
2023/05/12 05:12:32;;;;;;;5.87;1.73;;;;;;;14.41;59.04;99499.16;5080450;28;20192;-92
2023/05/12 05:14:59;;;;;;;7.00;1.87;;;;;;;14.66;58.36;99504.56;5070382;28;20204;-92
2023/05/12 05:17:27;;;;;;;3.43;1.37;;;;;;;14.95;57.12;99500.06;5081427;28;20176;-92
2023/05/12 05:19:53;;;;;;;3.33;1.57;;;;;;;15.16;56.96;99496.88;5090153;28;20181;-91
2023/05/12 05:22:20;;;;;;;3.53;1.87;;;;;;;15.35;56.20;99505.31;5089819;28;20184;-92
2023/05/12 05:24:47;;;;;;;3.10;1.60;;;;;;;15.37;56.40;99492.84;5089690;28;20594;-93
2023/05/12 05:27:14;;;;;;;4.07;1.43;;;;;;;15.08;57.03;99506.25;5090400;28;20249;-94
2023/05/12 05:29:39;;;;;;;8.97;2.40;;;;;;;15.01;56.71;99508.47;5071969;28;20302;-93
2023/05/12 05:32:20;;;;;;;7.73;1.87;;;;;;;15.17;56.40;99493.28;5086491;28;20610;-93
2023/05/12 05:34:45;;;;;;;6.47;2.07;;;;;;;15.18;55.64;99502.91;5066036;28;20200;-92
2023/05/12 05:37:11;;;;;;;5.17;1.60;;;;;;;15.04;56.89;99505.59;5062559;28;20872;-93
2023/05/12 05:39:37;;;;;;;3.80;1.70;;;;;;;15.01;56.78;99510.25;5064832;28;20185;-92
2023/05/12 05:42:12;;;;;;;3.10;1.40;;;;;;;14.94;57.44;99509.78;5056948;28;20193;-94
2023/05/12 05:44:38;;;;;;;3.30;1.83;;;;;;;14.85;58.11;99510.38;5051191;28;20298;-91
2023/05/12 05:47:04;;;;;;;3.40;1.83;;;;;;;15.02;58.76;99512.78;5064733;28;20611;-91
2023/05/12 05:49:29;;;;;;;8.63;2.00;;;;;;;15.17;58.28;99506.50;5054799;28;20619;-92
2023/05/12 05:51:55;;;;;;;3.20;1.60;;;;;;;15.07;57.34;99505.41;5052506;28;20218;-92
2023/05/12 05:54:23;;;;;;;4.57;1.70;;;;;;;15.01;57.96;99516.38;5058781;28;20237;-92
2023/05/12 05:56:48;;;;;;;3.37;1.90;;;;;;;14.99;57.95;99506.88;5058275;28;20247;-92
2023/05/12 05:59:14;;;;;;;4.63;2.03;;;;;;;15.21;57.18;99513.28;5059664;28;20197;-92
2023/05/12 06:01:39;;;;;;;3.27;2.00;;;;;;;15.18;57.34;99516.13;5062593;28;20189;-93
2023/05/12 06:04:05;;;;;;;5.30;1.73;;;;;;;15.18;56.98;99513.47;5063880;28;20192;-93
2023/05/12 06:06:30;;;;;;;3.27;1.70;;;;;;;15.28;56.79;99516.34;5039766;28;20230;-92
2023/05/12 06:08:55;;;;;;;5.87;1.73;;;;;;;15.28;56.50;99506.63;5047394;28;20182;-92
2023/05/12 06:11:21;;;;;;;4.37;1.93;;;;;;;15.39;56.29;99506.78;5061841;28;20192;-92
2023/05/12 06:13:46;;;;;;;4.03;1.97;;;;;;;15.47;55.77;99508.09;5051422;28;20194;-92
2023/05/12 06:16:12;;;;;;;4.10;2.07;;;;;;;15.46;56.13;99514.34;5045295;28;20191;-92
2023/05/12 06:18:37;;;;;;;3.27;1.83;;;;;;;15.55;56.92;99505.78;5048239;28;20189;-94
2023/05/12 06:21:04;;;;;;;2.97;1.60;;;;;;;15.62;56.85;99500.00;5053030;28;20195;-94
2023/05/12 06:23:29;;;;;;;3.33;1.40;;;;;;;15.79;56.42;99502.34;5045997;28;20183;-93
2023/05/12 06:25:55;;;;;;;3.03;1.80;;;;;;;15.92;56.66;99497.06;5037273;28;20334;-93
2023/05/12 06:28:21;;;;;;;3.33;1.70;;;;;;;16.07;57.48;99493.34;5049259;28;20347;-93
2023/05/12 06:30:46;;;;;;;3.47;1.73;;;;;;;16.11;54.82;99499.28;5044337;28;20204;-93
2023/05/12 06:33:11;;;;;;;6.00;2.00;;;;;;;16.16;56.25;99503.31;5045164;28;20188;-93
2023/05/12 06:35:37;;;;;;;4.63;1.90;;;;;;;16.16;55.40;99503.31;5067958;28;20194;-93
2023/05/12 06:38:02;;;;;;;7.67;2.40;;;;;;;16.24;56.09;99490.41;5071328;28;20696;-94
2023/05/12 06:40:28;;;;;;;7.67;2.13;;;;;;;16.35;54.39;99503.69;5055407;28;20623;-94
2023/05/12 06:42:54;;;;;;;3.27;1.40;;;;;;;16.44;54.92;99496.91;5060924;28;20529;-93
2023/05/12 06:45:22;;;;;;;3.60;1.47;;;;;;;16.58;53.75;99500.34;5074841;28;20180;-94
2023/05/12 06:47:49;;;;;;;5.90;2.30;;;;;;;16.63;54.51;99496.50;5074922;28;20191;-93
2023/05/12 06:50:16;;;;;;;4.40;1.93;;;;;;;16.69;54.76;99493.41;5075616;28;20195;-94
2023/05/12 06:52:43;;;;;;;5.03;1.60;;;;;;;16.86;52.85;99491.25;5074631;28;20663;-94
2023/05/12 06:55:10;;;;;;;4.63;1.70;;;;;;;16.95;53.04;99490.59;5069350;28;20205;-94
2023/05/12 06:57:36;;;;;;;6.77;2.00;;;;;;;17.15;54.89;99492.59;5054573;28;20169;-94
2023/05/12 07:00:03;;;;;;;3.60;1.67;;;;;;;17.07;53.36;99496.78;5054799;28;20275;-94
2023/05/12 07:02:30;;;;;;;3.33;1.70;;;;;;;17.11;52.03;99500.91;5071141;28;20259;-94
2023/05/12 07:04:57;;;;;;;3.87;2.07;;;;;;;17.10;51.49;99499.19;5054523;28;20246;-94
2023/05/12 07:07:23;;;;;;;3.63;1.83;;;;;;;17.27;51.33;99504.09;5051882;28;20184;-95
2023/05/12 07:09:49;;;;;;;3.67;1.77;;;;;;;17.20;50.21;99497.56;5059767;28;20194;-95
2023/05/12 07:12:14;;;;;;;3.70;1.50;;;;;;;17.20;51.09;99508.16;5048158;28;20199;-94
2023/05/12 07:14:43;;;;;;;3.53;1.43;;;;;;;17.28;50.21;99499.63;5049812;28;20650;-95
2023/05/12 07:17:08;;;;;;;4.87;1.60;;;;;;;17.30;50.57;99498.56;5049376;28;20201;-95
2023/05/12 07:19:34;;;;;;;4.70;1.77;;;;;;;17.33;50.65;99501.00;5051043;28;20197;-94
2023/05/12 07:22:02;;;;;;;6.07;1.50;;;;;;;17.44;51.81;99500.19;5041019;28;20189;-89
2023/05/12 07:24:28;;;;;;;6.03;1.87;;;;;;;17.58;52.19;99500.88;5042658;28;20187;-89
2023/05/12 07:26:53;;;;;;;5.23;2.50;;;;;;;17.68;51.11;99499.22;5046051;28;20244;-88
2023/05/12 07:29:18;;;;;;;3.03;1.50;;;;;;;17.83;49.33;99501.66;5045041;28;20186;-89
2023/05/12 07:31:45;;;;;;;3.73;1.67;;;;;;;17.83;48.45;99509.63;5048763;28;20719;-88
2023/05/12 07:34:12;;;;;;;4.20;1.33;;;;;;;17.79;48.04;99503.72;5044923;28;20237;-89
2023/05/12 07:36:39;;;;;;;3.10;1.60;;;;;;;17.97;48.89;99499.66;5054972;28;20198;-88
2023/05/12 07:39:06;;;;;;;5.27;1.60;;;;;;;18.09;48.40;99503.16;5046559;28;20240;-88
2023/05/12 07:41:32;;;;;;;3.50;1.57;;;;;;;18.16;46.94;99504.41;5039902;28;20709;-88
2023/05/12 07:44:01;;;;;;;7.93;1.70;;;;;;;18.23;47.94;99510.91;5043294;28;20190;-88
2023/05/12 07:46:26;;;;;;;4.27;1.67;;;;;;;18.34;46.84;99501.13;5037510;28;20210;-88
2023/05/12 07:48:52;;;;;;;2.90;1.63;;;;;;;18.59;47.57;99515.16;5042469;28;20452;-88
2023/05/12 07:51:17;;;;;;;4.73;1.30;;;;;;;18.93;45.79;99500.84;5035609;28;20198;-88
2023/05/12 07:53:43;;;;;;;3.03;1.60;;;;;;;19.00;44.94;99496.72;5044023;28;20646;-87
2023/05/12 07:56:15;;;;;;;8.20;2.47;;;;;;;18.96;46.11;99497.97;5059310;28;20199;-88
2023/05/12 07:58:42;;;;;;;3.50;1.27;;;;;;;18.96;44.35;99496.16;5044930;28;20186;-88
2023/05/12 08:01:09;;;;;;;3.20;1.77;;;;;;;18.98;44.39;99494.22;5038846;28;20187;-88
2023/05/12 08:03:36;;;;;;;2.07;1.03;;;;;;;18.90;44.78;99495.78;5039804;28;20623;-88
2023/05/12 08:06:04;;;;;;;3.43;1.80;;;;;;;18.82;45.14;99500.88;5042159;28;20193;-94
2023/05/12 08:08:32;;;;;;;2.87;1.17;;;;;;;19.08;46.63;99501.44;5051338;28;20195;-95
2023/05/12 08:10:59;;;;;;;4.00;1.47;;;;;;;19.59;47.68;99490.03;5050977;28;20209;-95
2023/05/12 08:13:55;;;;;;;2.57;1.37;;;;;;;20.15;45.63;99492.34;5052811;28;20209;-93
2023/05/12 08:16:22;;;;;;;3.60;1.40;;;;;;;20.63;44.18;99479.25;5059425;28;20186;-95
2023/05/12 08:18:49;;;;;;;7.10;1.57;;;;;;;20.71;41.00;99484.75;5048299;28;20210;-94
2023/05/12 08:21:15;;;;;;;4.07;1.47;;;;;;;20.81;41.74;99485.59;5042536;28;20562;-95
2023/05/12 08:23:54;;;;;;;4.20;1.67;;;;;;;20.93;40.41;99497.00;5043591;28;20181;-95
2023/05/12 08:26:21;;;;;;;3.23;1.40;;;;;;;20.85;40.90;99500.34;5067625;28;20550;-95
2023/05/12 08:46:20;;;;;;;2.17;1.40;;;;;;;20.52;41.46;99501.50;4885660;28;20614;-95
2023/05/12 08:48:49;;;;;;;5.30;1.50;;;;;;;20.62;39.48;99496.22;4963957;28;20207;-94
2023/05/12 08:51:18;;;;;;;2.67;1.13;;;;;;;20.63;39.57;99493.41;4974130;28;20204;-95
2023/05/12 08:53:48;;;;;;;4.70;1.87;;;;;;;20.63;38.54;99497.88;4963051;28;20216;-96
2023/05/12 08:56:18;;;;;;;2.50;1.10;;;;;;;20.39;38.35;99497.41;4941416;28;20192;-95
2023/05/12 08:58:46;;;;;;;4.27;1.63;;;;;;;19.98;40.00;99501.75;4957680;28;20197;-94
2023/05/12 09:01:13;;;;;;;2.93;1.43;;;;;;;20.06;40.74;99493.97;4957159;28;20180;-96
2023/05/12 09:03:38;;;;;;;4.77;1.00;;;;;;;20.04;40.23;99498.59;4954083;28;20256;-95
2023/05/12 09:06:07;;;;;;;2.63;1.33;;;;;;;20.36;40.38;99493.16;4954082;29;20618;-94
2023/05/12 09:08:35;;;;;;;4.20;1.80;;;;;;;20.76;39.33;99494.00;4938234;29;20570;-94
2023/05/12 09:11:01;;;;;;;2.90;1.50;;;;;;;20.92;39.42;99485.50;4985076;28;20623;-96
2023/05/12 09:13:59;;;;;;;3.87;1.50;;;;;;;21.06;39.11;99489.59;5049470;28;20213;-96
2023/05/12 09:16:28;;;;;;;5.90;1.17;;;;;;;20.95;38.40;99493.22;5049539;28;20182;-96
2023/05/12 09:18:59;;;;;;;4.77;1.47;;;;;;;20.79;39.30;99492.91;5049304;28;20193;-96
2023/05/12 09:21:27;;;;;;;4.47;1.53;;;;;;;20.85;38.90;99495.03;5068196;28;20181;-96
2023/05/12 09:24:07;;;;;;;2.70;1.10;;;;;;;21.01;38.25;99494.50;5052740;28;20265;-94
2023/05/12 09:26:50;;;;;;;2.73;1.30;;;;;;;21.06;38.12;99494.94;5050143;28;20193;-95
2023/05/12 09:29:19;;;;;;;5.27;1.73;;;;;;;21.19;39.54;99491.06;5052203;28;20251;-95
2023/05/12 09:31:53;;;;;;;3.97;1.70;;;;;;;21.30;39.71;99500.75;5052344;28;20230;-95
2023/05/12 09:34:37;;;;;;;5.60;1.50;;;;;;;21.40;39.44;99493.59;5051571;28;20201;-95
2023/05/12 09:37:06;;;;;;;2.70;1.60;;;;;;;21.37;37.56;99493.88;5053741;28;20170;-96
2023/05/12 09:39:33;;;;;;;3.93;1.50;;;;;;;21.14;38.88;99498.63;5052299;28;20251;-94
2023/05/12 09:41:59;;;;;;;4.00;1.80;;;;;;;21.31;38.02;99494.41;5072486;28;20182;-96
2023/05/12 09:44:28;;;;;;;2.43;1.60;;;;;;;21.34;38.29;99499.47;5056139;28;20197;-95
2023/05/12 09:46:54;;;;;;;2.43;1.53;;;;;;;21.43;37.95;99494.13;5056233;28;20185;-95
2023/05/12 09:49:25;;;;;;;4.13;2.13;;;;;;;20.93;38.91;99499.66;5056203;28;20239;-96
2023/05/12 09:51:58;;;;;;;3.00;1.47;;;;;;;20.70;38.55;99504.38;5072783;28;20177;-94
2023/05/12 09:54:31;;;;;;;4.10;1.50;;;;;;;20.92;38.96;99498.81;5055288;28;20238;-94
2023/05/12 09:57:00;;;;;;;3.77;1.80;;;;;;;20.86;39.83;99504.69;5050695;28;20222;-94
2023/05/12 09:59:35;;;;;;;3.43;1.70;;;;;;;20.93;38.04;99505.00;5036103;28;20191;-94
2023/05/12 10:02:05;;;;;;;3.67;1.93;;;;;;;20.84;38.57;99499.50;5056227;28;20181;-93
2023/05/12 10:04:41;;;;;;;2.73;1.20;;;;;;;21.04;40.57;99503.03;5039062;28;20204;-94
2023/05/12 10:07:10;;;;;;;5.67;1.77;;;;;;;21.24;39.13;99494.13;5055767;28;20282;-94
2023/05/12 10:09:41;;;;;;;2.73;1.70;;;;;;;21.62;38.29;99487.13;5055781;28;20192;-94
2023/05/12 10:12:09;;;;;;;3.70;1.43;;;;;;;21.83;37.25;99493.13;5055421;28;20169;-93
2023/05/12 10:14:36;;;;;;;3.43;1.50;;;;;;;21.93;38.59;99491.34;5072037;28;20267;-94
2023/05/12 10:17:04;;;;;;;4.47;2.20;;;;;;;21.86;37.37;99492.88;5038180;28;20615;-93
2023/05/12 10:19:31;;;;;;;4.07;1.60;;;;;;;22.11;36.64;99486.94;5055918;28;20200;-94
2023/05/12 10:21:59;;;;;;;3.47;1.90;;;;;;;22.13;35.86;99487.63;5071871;28;20185;-95
2023/05/12 10:24:27;;;;;;;3.50;1.73;;;;;;;22.11;37.42;99489.59;5055091;28;20268;-94
2023/05/12 10:26:58;;;;;;;4.00;1.67;;;;;;;22.02;37.16;99493.97;5055364;28;20186;-95
2023/05/12 10:29:28;;;;;;;2.60;1.20;;;;;;;22.00;36.93;99481.75;5055223;28;20190;-94
2023/05/12 10:32:00;;;;;;;3.40;1.70;;;;;;;22.03;36.10;99481.47;5055307;28;20540;-94
2023/05/12 10:34:36;;;;;;;4.83;1.97;;;;;;;22.03;36.87;99476.13;5055045;28;20280;-94
2023/05/12 10:37:09;;;;;;;5.43;1.97;;;;;;;22.27;37.35;99473.81;5054940;28;20193;-93
2023/05/12 10:39:59;;;;;;;2.83;1.87;;;;;;;22.57;38.40;99470.84;5055045;28;20174;-94
2023/05/12 10:42:35;;;;;;;6.90;1.77;;;;;;;22.78;35.63;99464.44;5055264;28;20166;-93
2023/05/12 10:45:03;;;;;;;2.67;1.30;;;;;;;22.94;36.00;99456.59;5054893;28;20181;-94
2023/05/12 10:47:36;;;;;;;5.53;1.47;;;;;;;22.92;36.04;99454.09;5054796;28;20544;-93
2023/05/12 10:50:04;;;;;;;4.30;1.87;;;;;;;22.87;36.08;99460.88;5054899;28;20607;-93
2023/05/12 10:52:30;;;;;;;3.20;1.37;;;;;;;22.70;36.28;99459.84;5055785;28;20181;-92
2023/05/12 10:55:01;;;;;;;3.13;1.40;;;;;;;22.58;36.02;99463.69;5054357;28;20343;-92
2023/05/12 10:57:29;;;;;;;3.83;1.43;;;;;;;22.38;36.73;99462.91;5055065;28;20212;-93
2023/05/12 10:59:59;;;;;;;7.00;1.77;;;;;;;22.24;36.99;99458.06;5055407;28;20205;-93
2023/05/12 11:02:29;;;;;;;2.80;1.53;;;;;;;22.04;37.30;99454.63;5071109;28;20190;-93
2023/05/12 11:05:09;;;;;;;2.83;1.60;;;;;;;21.96;38.35;99451.81;5054364;28;20186;-92
2023/05/12 11:07:35;;;;;;;3.17;1.40;;;;;;;22.13;37.74;99449.38;5053729;28;20185;-91
2023/05/12 11:10:04;;;;;;;4.73;2.20;;;;;;;22.24;37.40;99449.22;5042224;28;20186;-92
2023/05/12 11:12:34;;;;;;;4.40;1.77;;;;;;;22.49;37.03;99440.50;5050602;28;20696;-91
2023/05/12 11:15:00;;;;;;;4.57;1.97;;;;;;;22.39;35.37;99439.72;5053959;28;20228;-93
2023/05/12 11:17:26;;;;;;;3.53;1.37;;;;;;;22.34;35.73;99437.50;5055618;28;20268;-94
2023/05/12 11:19:53;;;;;;;8.23;1.70;;;;;;;22.47;37.50;99442.50;5051400;28;20291;-91
2023/05/12 11:22:21;;;;;;;6.53;1.43;;;;;;;22.71;36.77;99441.97;5054751;28;20177;-91
2023/05/12 11:24:49;;;;;;;3.57;1.50;;;;;;;22.68;37.22;99431.59;5054891;28;20186;-92
2023/05/12 11:27:18;;;;;;;1.97;1.03;;;;;;;22.72;35.13;99441.00;5050958;28;20280;-93
2023/05/12 11:29:55;;;;;;;5.27;1.10;;;;;;;22.35;34.74;99431.16;5053886;28;20182;-93
2023/05/12 11:32:22;;;;;;;2.53;1.07;;;;;;;22.58;37.26;99436.97;5054067;28;20185;-93
2023/05/12 11:34:49;;;;;;;4.03;1.30;;;;;;;22.86;36.36;99427.94;5070760;28;20208;-94
2023/05/12 11:37:19;;;;;;;7.70;1.33;;;;;;;23.10;35.82;99413.97;5054369;28;20178;-93
2023/05/12 11:39:46;;;;;;;2.73;1.37;;;;;;;23.01;33.73;99417.56;5054194;28;20213;-94
2023/05/12 11:42:12;;;;;;;3.60;1.00;;;;;;;22.97;35.88;99418.88;5070461;28;20542;-94
2023/05/12 11:44:49;;;;;;;3.93;1.20;;;;;;;22.95;35.67;99418.19;5053836;28;20185;-93
2023/05/12 11:47:15;;;;;;;2.27;1.20;;;;;;;23.29;34.77;99424.53;5070657;28;20212;-94
2023/05/12 11:49:55;;;;;;;2.17;1.13;;;;;;;23.38;34.33;99428.97;5053852;28;20186;-94
2023/05/12 11:52:23;;;;;;;4.43;1.20;;;;;;;23.37;33.71;99427.31;5053810;28;20166;-94
2023/05/12 11:54:56;;;;;;;3.83;1.17;;;;;;;23.44;33.72;99417.66;5053616;28;20328;-94